Latest Weather Observations for Wilsons Promontory

IDV60801

Issued at 2:02 am EDT Monday 2 March 2015 (issued every 30 minutes, with the page automatically refreshed every 10 minutes)

About weather observations | Map of weather stations | Latest weather observations for VIC | Other Formats
Station Details ID: 085096 Name: WILSONS PROMONTORY LIGHTHOUSE Lat: -39.13 Lon: 146.42 Height: 95.0 m
Data from the previous 72 hours. | See also: Recent months at Wilsons Promontory
Date/Time
EDT
Temp
°C
App
Temp
°C
Dew
Point
Rel
Hum
%
Delta-T
°C
Wind Press
QNH
hPa
Press
MSL
hPa
Rain
since 9 am
mm
Dir
 
Spd
km/h
Gust
km/h
Spd
kts
Gust
kts
02/02:00am 15.6 10.8 10.2 70 2.8 SW 26 32 14 17 1017.3 - 0.0
02/01:30am 15.6 10.4 10.4 71 2.7 SW 28 37 15 20 1017.1 - 0.0
02/01:00am 15.5 12.0 10.3 71 2.7 SW 19 26 10 14 1017.0 - 0.0
02/12:30am 15.7 10.8 9.8 68 3.1 SW 26 32 14 17 1017.1 - 0.0
02/12:00am 15.7 10.1 10.0 69 3.0 SW 30 37 16 20 1017.0 1016.8 0.0
 
Date/Time
EDT
Temp
°C
App
Temp
°C
Dew
Point
Rel
Hum
%
Delta-T
°C
Wind Press
QNH
hPa
Press
MSL
hPa
Rain
since 9 am
mm
Dir
 
Spd
km/h
Gust
km/h
Spd
kts
Gust
kts
01/11:30pm 15.7 9.9 10.7 72 2.7 WSW 32 35 17 19 1017.2 - 0.0
01/11:00pm 15.7 10.6 10.7 72 2.7 SW 28 35 15 19 1017.3 - 0.0
01/10:30pm 15.7 9.3 10.7 72 2.7 SW 35 41 19 22 1017.3 - 0.0
01/10:00pm 15.7 8.9 10.5 71 2.8 SW 37 44 20 24 1017.0 - 0.0
01/09:30pm 15.8 8.7 11.0 73 2.6 WSW 39 50 21 27 1016.6 - 0.0
01/09:00pm 15.7 8.2 10.9 73 2.6 WSW 41 50 22 27 1016.1 1016.0 0.0
01/08:30pm 15.7 6.3 10.2 70 2.9 WSW 50 61 27 33 1016.0 - 0.0
01/08:00pm 15.9 8.0 10.9 72 2.7 WSW 43 57 23 31 1015.6 - 0.0
01/07:51pm 16.0 7.8 10.5 70 2.9 WSW 44 63 24 34 1015.4 - 0.0
01/07:30pm 16.1 7.6 10.8 71 2.8 WSW 46 54 25 29 1015.1 - 0.0
01/07:00pm 16.2 6.1 10.5 69 3.0 WSW 54 69 29 37 1014.7 - 0.0
01/06:31pm 16.4 6.8 9.6 64 3.6 WSW 50 69 27 37 1014.3 - 0.0
01/06:30pm 16.5 7.5 10.1 66 3.4 WSW 48 65 26 35 1014.4 - 0.0
01/06:21pm 16.8 7.5 10.6 67 3.3 WSW 50 69 27 37 1014.5 - 0.0
01/06:00pm 16.5 5.8 10.4 67 3.2 WSW 57 65 31 35 1014.0 1013.8 0.0
01/05:30pm 16.6 4.8 10.5 67 3.3 SW 63 70 34 38 1013.6 - 0.0
01/05:00pm 16.5 4.4 10.6 68 3.2 SW 65 74 35 40 1013.6 - 0.0
01/04:30pm 16.9 6.1 11.4 70 3.0 SW 59 69 32 37 1013.5 - 0.0
01/04:00pm 16.8 6.0 11.1 69 3.1 WSW 59 70 32 38 1013.2 - 0.0
01/03:30pm 17.2 6.6 12.1 72 2.8 WSW 59 67 32 36 1013.0 - 0.0
01/03:00pm 17.3 8.2 12.4 73 2.7 WSW 52 61 28 33 1012.8 1012.6 0.0
01/02:30pm 17.1 6.8 11.8 71 2.9 SW 57 69 31 37 1012.4 - 0.0
01/02:00pm 16.5 7.0 12.3 76 2.3 SW 54 72 29 39 1012.3 - 0.0
01/01:59pm 16.5 7.0 12.3 76 2.3 SW 54 72 29 39 1012.3 - 0.0
01/01:30pm 17.5 8.2 12.0 70 3.0 WSW 52 63 28 34 1012.2 - 0.0
01/01:00pm 17.1 7.0 12.2 73 2.7 WSW 57 67 31 36 1011.7 - 0.0
01/12:30pm 17.0 6.8 11.9 72 2.8 WSW 57 65 31 35 1011.3 - 0.0
01/12:00pm 16.3 6.1 12.1 76 2.3 SW 57 69 31 37 1011.2 1011.0 0.0
01/11:30am 16.6 5.3 12.2 75 2.4 SW 63 72 34 39 1010.7 - 0.0
01/11:16am 16.5 7.9 12.8 79 2.1 SW 50 76 27 41 1010.8 - 0.0
01/11:09am 15.9 7.1 12.1 78 2.1 SW 50 80 27 43 1010.3 - 0.0
01/11:03am 17.0 7.7 11.9 72 2.8 WSW 52 72 28 39 1010.3 - 0.0
01/11:00am 17.0 7.7 11.9 72 2.8 WSW 52 69 28 37 1010.3 - 0.0
01/10:59am 16.9 8.0 11.8 72 2.8 WSW 50 69 27 37 1010.4 - 0.0
01/10:30am 16.8 6.2 11.9 73 2.7 SW 59 72 32 39 1009.7 - 0.0
01/10:00am 16.6 6.9 11.9 74 2.6 WSW 54 69 29 37 1009.2 - 0.0
01/09:30am 16.6 6.2 11.3 71 2.9 WSW 57 70 31 38 1008.8 - 0.0
01/09:00am 16.5 5.4 11.6 73 2.7 WSW 61 74 33 40 1008.1 1007.9 13.2
01/08:30am 16.5 5.1 10.6 68 3.2 WSW 61 76 33 41 1007.4 - 13.2
01/08:00am 16.3 4.0 11.5 73 2.6 WSW 67 80 36 43 1006.8 - 13.2
01/07:30am 16.4 5.2 12.6 78 2.1 SW 63 74 34 40 1006.5 - 13.2
01/07:00am 16.6 5.5 12.9 79 2.1 SW 63 72 34 39 1005.6 - 13.2
01/06:33am 16.6 7.3 11.9 74 2.6 WSW 52 72 28 39 1005.2 - 13.2
01/06:30am 16.6 8.0 11.7 73 2.7 WSW 48 72 26 39 1005.5 - 13.2
01/06:28am 16.5 7.8 11.4 72 2.8 WSW 48 72 26 39 1005.3 - 13.2
01/06:00am 16.4 3.9 12.0 75 2.4 WSW 69 80 37 43 1004.1 1003.9 13.2
01/05:30am 16.5 4.1 13.0 80 2.0 SW 70 80 38 43 1003.5 - 13.2
01/05:00am 16.3 5.7 13.2 82 1.7 WSW 61 76 33 41 1003.3 - 13.2
01/04:30am 16.4 4.3 13.7 84 1.5 SW 70 83 38 45 1002.6 - 13.2
01/04:00am 16.6 5.8 14.8 89 1.0 SW 65 80 35 43 1002.6 - 13.2
01/03:30am 16.5 7.8 16.3 99 0.1 SW 57 72 31 39 1003.2 - 13.2
01/03:06am 15.8 8.2 15.8 100 0.0 SW 50 69 27 37 1003.0 - 13.2
01/03:00am 15.4 8.1 15.4 100 0.0 SW 48 65 26 35 1002.9 1002.7 13.2
01/02:46am 16.0 8.1 16.0 100 0.0 SW 52 70 28 38 1003.7 - 12.8
01/02:30am 16.0 7.7 16.0 100 0.0 SW 54 67 29 36 1003.1 - 12.8
01/02:00am 17.1 9.7 17.1 100 0.0 SW 52 61 28 33 1003.3 - 12.4
01/01:47am 17.5 11.7 17.5 100 0.0 WSW 44 52 24 28 1003.5 - 12.0
01/01:45am 18.2 15.8 18.2 100 0.0 W 28 50 15 27 1003.5 - 12.0
01/01:30am 18.5 17.7 18.5 100 0.0 NW 20 35 11 19 1003.5 - 12.0
01/01:00am 18.6 18.1 18.6 100 0.0 WNW 19 32 10 17 1003.3 - 11.8
01/12:30am 18.8 18.4 18.8 100 0.0 NNW 19 37 10 20 1003.2 - 11.2
01/12:00am 18.3 18.0 18.3 100 0.0 N 17 20 9 11 1004.0 1003.8 7.2
 
Date/Time
EDT
Temp
°C
App
Temp
°C
Dew
Point
Rel
Hum
%
Delta-T
°C
Wind Press
QNH
hPa
Press
MSL
hPa
Rain
since 9 am
mm
Dir
 
Spd
km/h
Gust
km/h
Spd
kts
Gust
kts
28/11:30pm 18.1 18.5 18.1 100 0.0 W 13 17 7 9 1004.2 - 4.0
28/11:00pm 18.5 14.7 18.2 98 0.2 SW 35 43 19 23 1004.2 - 2.8
28/10:40pm 18.8 14.4 17.6 93 0.7 SW 37 61 20 33 1004.0 - 2.0
28/10:30pm 19.2 12.6 17.2 88 1.2 WSW 48 63 26 34 1004.0 - 1.8
28/10:27pm 19.4 13.8 16.6 84 1.7 WSW 41 63 22 34 1004.2 - 1.4
28/10:23pm 20.1 15.0 16.7 81 2.1 WNW 39 63 21 34 1004.3 - 0.8
28/10:20pm 20.4 16.1 16.8 80 2.2 WNW 35 50 19 27 1004.3 - 0.6
28/10:00pm 21.9 21.5 17.1 74 3.0 WNW 15 28 8 15 1003.1 - 0.0
28/09:55pm 22.0 21.8 16.7 72 3.2 WNW 13 32 7 17 1002.5 - 0.0
28/09:30pm 21.8 17.8 16.7 73 3.1 NNE 33 46 18 25 1000.5 - 0.0
28/09:00pm 21.6 18.1 16.6 73 3.1 NNE 30 43 16 23 1000.6 1000.4 0.0
28/08:30pm 21.1 18.0 16.5 75 2.8 N 28 46 15 25 1000.7 - 0.0
28/08:00pm 21.0 17.9 16.6 76 2.7 NNE 28 43 15 23 1000.7 - 0.0
28/07:30pm 20.8 19.4 18.0 84 1.7 NNE 22 32 12 17 1001.2 - 0.0
28/07:00pm 20.0 17.2 18.3 90 1.1 NNE 30 35 16 19 1001.5 - 0.0
28/06:30pm 20.5 19.1 18.8 90 1.1 NNE 24 32 13 17 1002.0 - 0.0
28/06:00pm 20.4 19.4 18.0 86 1.5 NNE 20 24 11 13 1002.8 1002.6 0.0
28/05:30pm 20.7 19.5 17.1 80 2.2 NNE 19 26 10 14 1003.1 - 0.0
28/05:00pm 23.0 24.8 17.5 71 3.4 N 4 11 2 6 1003.2 - 0.0
28/04:30pm 22.6 23.4 16.4 68 3.8 WSW 7 9 4 5 1003.4 - 0.0
28/04:00pm 22.0 21.6 16.3 70 3.5 W 13 19 7 10 1003.8 - 0.0
28/03:30pm 21.8 20.0 16.1 70 3.4 WSW 20 26 11 14 1004.0 - 0.0
28/03:00pm 23.4 21.9 16.7 66 4.1 NNW 20 39 11 21 1004.2 1004.0 0.0
28/02:30pm 22.4 22.5 16.4 69 3.7 W 11 19 6 10 1004.5 - 0.0
28/02:00pm 22.0 19.0 15.8 68 3.7 WNW 26 35 14 19 1004.8 - 0.0
28/01:58pm 22.0 19.0 15.8 68 3.7 WNW 26 35 14 19 1004.7 - 0.0
28/01:30pm 22.2 16.8 16.0 68 3.8 W 39 57 21 31 1005.0 - 0.0
28/01:19pm 23.0 18.1 16.3 66 4.1 W 37 56 20 30 1005.0 - 0.0
28/01:03pm 23.8 19.8 16.1 62 4.7 WNW 32 54 17 29 1005.0 - 0.0
28/01:00pm 24.0 22.3 16.3 62 4.7 W 20 54 11 29 1005.0 - 0.0
28/12:30pm 23.1 24.0 17.6 71 3.4 WSW 9 24 5 13 1005.1 - 0.0
28/12:00pm 21.0 20.8 18.6 86 1.5 NNE 17 30 9 16 1005.1 1004.9 0.0
28/11:30am 20.0 18.7 18.1 89 1.2 NE 22 26 12 14 1005.3 - 0.0
28/11:00am 19.7 17.7 18.4 92 0.8 NE 26 30 14 16 1005.3 - 0.0
28/10:30am 19.4 17.2 17.9 91 0.9 NNE 26 30 14 16 1005.8 - 0.0
28/10:00am 19.0 16.4 17.7 92 0.8 NNE 28 37 15 20 1006.2 - 0.0
28/09:30am 19.3 15.9 17.8 91 0.9 NNE 32 41 17 22 1006.0 - 0.0
28/09:00am 18.6 14.1 17.3 92 0.8 NNE 37 50 20 27 1006.3 1006.0 1.6
28/08:30am 18.2 14.3 17.0 93 0.7 NNE 33 52 18 28 1005.6 - 1.6
28/08:00am 17.9 13.2 16.8 93 0.7 NNE 37 50 20 27 1005.5 - 1.6
28/07:30am 17.5 13.4 16.4 93 0.7 NNE 33 44 18 24 1005.8 - 1.6
28/07:00am 17.3 13.1 16.2 93 0.7 NNE 33 48 18 26 1005.6 - 1.6
28/06:30am 17.0 14.4 15.9 93 0.7 NNE 24 41 13 22 1006.2 - 1.6
28/06:00am 16.8 13.7 15.5 92 0.8 NNE 26 35 14 19 1006.6 1006.3 1.6
28/05:30am 16.6 14.5 15.1 91 0.9 NNE 20 30 11 16 1007.1 - 1.6
28/05:00am 16.3 13.6 14.7 90 0.9 NNE 22 28 12 15 1007.5 - 1.6
28/04:30am 16.2 13.8 14.4 89 1.0 NNE 20 26 11 14 1007.8 - 1.6
28/04:00am 15.7 13.6 13.5 87 1.2 NNE 17 20 9 11 1008.1 - 1.6
28/03:30am 15.4 14.7 13.1 86 1.3 NE 9 11 5 6 1008.8 - 1.6
28/03:00am 15.4 16.2 12.7 84 1.5 CALM 0 0 0 0 1009.4 1009.2 1.6
28/02:30am 15.4 15.1 12.7 84 1.5 NNE 6 9 3 5 1009.4 - 1.6
28/02:00am 15.4 15.4 12.5 83 1.6 W 4 7 2 4 1009.4 - 1.6
28/01:30am 15.5 14.7 12.8 84 1.5 SW 9 13 5 7 1009.9 - 1.6
28/01:00am 15.2 14.8 12.5 84 1.5 NW 6 9 3 5 1010.2 - 1.6
28/12:30am 15.1 13.8 12.4 84 1.5 WNW 11 13 6 7 1010.6 - 1.6
28/12:00am 15.1 13.4 12.4 84 1.5 WNW 13 15 7 8 1010.8 1010.6 1.6
 
Date/Time
EDT
Temp
°C
App
Temp
°C
Dew
Point
Rel
Hum
%
Delta-T
°C
Wind Press
QNH
hPa
Press
MSL
hPa
Rain
since 9 am
mm
Dir
 
Spd
km/h
Gust
km/h
Spd
kts
Gust
kts
27/11:30pm 15.1 14.1 12.4 84 1.5 W 9 13 5 7 1010.9 - 1.6
27/11:00pm 15.1 13.8 12.4 84 1.5 W 11 15 6 8 1010.9 - 1.6
27/10:30pm 15.2 13.1 12.3 83 1.6 W 15 17 8 9 1011.1 - 1.6
27/10:00pm 15.6 13.2 12.5 82 1.7 W 17 26 9 14 1011.0 - 1.6
27/09:30pm 16.0 12.3 12.7 81 1.8 WSW 24 32 13 17 1010.7 - 1.6
27/09:00pm 16.1 11.7 12.8 81 1.8 SW 28 37 15 20 1010.6 1010.4 1.6
27/08:30pm 15.9 14.0 13.0 83 1.6 WSW 15 20 8 11 1010.5 - 1.6
27/08:00pm 15.9 15.0 12.6 81 1.8 NW 9 13 5 7 1010.2 - 1.6
27/07:30pm 16.5 14.1 12.8 79 2.1 W 17 20 9 11 1009.8 - 1.6
27/07:00pm 16.6 13.9 12.9 79 2.1 W 19 26 10 14 1009.6 - 1.6
27/06:30pm 16.5 14.1 12.8 79 2.1 W 17 24 9 13 1009.4 - 1.6
27/06:00pm 16.5 15.3 12.8 79 2.1 W 11 24 6 13 1009.7 1009.5 1.6
27/05:30pm 16.4 11.2 12.8 79 2.0 WSW 32 37 17 20 1009.9 - 1.6
27/05:00pm 16.6 11.4 12.9 79 2.1 WSW 32 39 17 21 1010.2 - 1.6
27/04:30pm 16.6 13.0 13.1 80 2.0 SW 24 33 13 18 1009.8 - 1.6
27/04:00pm 17.0 13.8 13.1 78 2.2 SW 22 30 12 16 1009.9 - 1.6
27/03:30pm 17.2 15.5 13.7 80 2.0 SSW 15 28 8 15 1010.1 - 1.6
27/03:00pm 17.3 15.7 13.8 80 2.0 SW 15 26 8 14 1010.4 1010.2 1.6
27/02:30pm 17.5 15.9 14.0 80 2.0 SSW 15 28 8 15 1010.6 - 1.6
27/02:00pm 17.7 16.3 14.6 82 1.8 SW 15 24 8 13 1010.6 - 1.6
27/01:30pm 17.6 15.4 14.5 82 1.8 SW 19 28 10 15 1010.7 - 1.6
27/01:00pm 17.7 17.9 14.8 83 1.7 E 7 17 4 9 1010.8 - 1.6
27/12:30pm 17.0 15.7 14.8 87 1.3 SSW 15 24 8 13 1011.0 - 1.6
27/12:00pm 17.3 17.7 16.2 93 0.7 SSW 9 19 5 10 1011.0 1010.8 1.6
27/11:30am 17.0 17.2 16.8 99 0.1 SW 11 15 6 8 1011.3 - 1.6
27/11:00am 16.6 17.5 16.6 100 0.0 W 7 11 4 6 1011.4 - 1.6
27/10:30am 16.0 17.2 16.0 100 0.0 W 4 9 2 5 1011.1 - 1.6
27/10:00am 15.8 15.6 15.8 100 0.0 WSW 11 17 6 9 1011.2 - 1.4
27/09:30am 15.9 15.4 15.9 100 0.0 WSW 13 19 7 10 1010.8 - 0.4
27/09:00am 16.1 16.0 16.1 100 0.0 SSE 11 17 6 9 1010.6 1010.4 2.2
27/08:30am 16.0 16.3 16.0 100 0.0 SSE 9 17 5 9 1010.5 - 2.0
27/08:00am 15.9 16.1 15.7 99 0.1 SSW 9 13 5 7 1010.4 - 2.0
27/07:30am 16.6 16.1 16.0 96 0.4 W 13 19 7 10 1010.2 - 1.2
27/07:00am 17.1 16.6 16.0 93 0.7 W 13 26 7 14 1010.0 - 0.2
27/06:30am 16.8 16.3 15.8 94 0.6 W 13 17 7 9 1009.5 - 0.2
27/06:00am 16.7 16.1 15.7 94 0.6 NW 13 24 7 13 1009.5 1009.3 0.0
27/05:30am 16.7 16.9 15.7 94 0.6 NW 9 15 5 8 1009.5 - 0.0
27/05:00am 16.8 15.8 15.7 93 0.6 WNW 15 17 8 9 1009.4 - 0.0
27/04:30am 16.8 16.5 15.5 92 0.8 NW 11 17 6 9 1009.5 - 0.0
27/04:00am 16.8 15.3 15.3 91 0.9 WNW 17 22 9 12 1009.6 - 0.0
27/03:30am 16.9 15.0 15.1 89 1.0 WNW 19 24 10 13 1009.7 - 0.0
27/03:00am 17.2 14.3 15.2 88 1.2 WNW 24 28 13 15 1009.7 1009.5 0.0
27/02:30am 17.2 14.0 15.4 89 1.1 NW 26 35 14 19 1009.7 - 0.0

Other Formats:

Comma delimited format used in spreadsheet applications
http://www.bom.gov.au/fwo/IDV60801/IDV60801.94893.axf

JavaScript Object Notation format (JSON) in row-major order
http://www.bom.gov.au/fwo/IDV60801/IDV60801.94893.json